sensor_id;sensor_type;location;lat;lon;timestamp;temperature;humidity
9760;DHT22;4919;48.792;9.202;2022-10-16T00:01:19;14.50;99.90
9760;DHT22;4919;48.792;9.202;2022-10-16T00:03:47;14.60;99.90
9760;DHT22;4919;48.792;9.202;2022-10-16T00:06:16;14.60;99.90
9760;DHT22;4919;48.792;9.202;2022-10-16T00:08:43;14.60;99.90
9760;DHT22;4919;48.792;9.202;2022-10-16T00:11:11;14.60;99.90
9760;DHT22;4919;48.792;9.202;2022-10-16T00:13:40;14.60;99.90
9760;DHT22;4919;48.792;9.202;2022-10-16T00:16:08;14.60;99.90
9760;DHT22;4919;48.792;9.202;2022-10-16T00:18:35;14.50;99.90
9760;DHT22;4919;48.792;9.202;2022-10-16T00:21:08;14.50;99.90
9760;DHT22;4919;48.792;9.202;2022-10-16T00:23:36;14.50;99.90
9760;DHT22;4919;48.792;9.202;2022-10-16T00:26:05;14.60;99.90
9760;DHT22;4919;48.792;9.202;2022-10-16T00:28:33;14.60;99.90
9760;DHT22;4919;48.792;9.202;2022-10-16T00:31:06;14.50;99.90
9760;DHT22;4919;48.792;9.202;2022-10-16T00:33:34;14.50;99.90
9760;DHT22;4919;48.792;9.202;2022-10-16T00:36:02;14.60;99.90
9760;DHT22;4919;48.792;9.202;2022-10-16T00:38:30;14.60;99.90
9760;DHT22;4919;48.792;9.202;2022-10-16T00:40:57;14.60;99.90
9760;DHT22;4919;48.792;9.202;2022-10-16T00:43:45;14.60;99.90
9760;DHT22;4919;48.792;9.202;2022-10-16T00:49:23;14.70;99.90
9760;DHT22;4919;48.792;9.202;2022-10-16T00:51:52;14.60;99.90
9760;DHT22;4919;48.792;9.202;2022-10-16T00:54:28;14.60;99.90
9760;DHT22;4919;48.792;9.202;2022-10-16T00:56:57;14.60;99.90
9760;DHT22;4919;48.792;9.202;2022-10-16T00:59:29;14.60;99.90
9760;DHT22;4919;48.792;9.202;2022-10-16T01:01:57;14.60;99.90
9760;DHT22;4919;48.792;9.202;2022-10-16T01:04:25;14.60;99.90
9760;DHT22;4919;48.792;9.202;2022-10-16T01:07:06;14.60;99.90
9760;DHT22;4919;48.792;9.202;2022-10-16T01:12:09;14.60;99.90
9760;DHT22;4919;48.792;9.202;2022-10-16T01:17:17;14.60;99.90
9760;DHT22;4919;48.792;9.202;2022-10-16T01:19:59;14.50;99.90
9760;DHT22;4919;48.792;9.202;2022-10-16T01:23:10;14.60;99.90
9760;DHT22;4919;48.792;9.202;2022-10-16T01:25:54;14.60;99.90
9760;DHT22;4919;48.792;9.202;2022-10-16T01:28:42;14.50;99.90
9760;DHT22;4919;48.792;9.202;2022-10-16T01:31:15;14.50;99.90
9760;DHT22;4919;48.792;9.202;2022-10-16T01:33:47;14.50;99.90
9760;DHT22;4919;48.792;9.202;2022-10-16T01:36:22;14.40;99.90
9760;DHT22;4919;48.792;9.202;2022-10-16T01:38:51;14.40;99.90
9760;DHT22;4919;48.792;9.202;2022-10-16T01:41:26;14.40;99.90
9760;DHT22;4919;48.792;9.202;2022-10-16T01:44:02;14.40;99.90
9760;DHT22;4919;48.792;9.202;2022-10-16T01:46:31;14.40;99.90
9760;DHT22;4919;48.792;9.202;2022-10-16T01:49:00;14.40;99.90
9760;DHT22;4919;48.792;9.202;2022-10-16T01:51:29;14.40;99.90
9760;DHT22;4919;48.792;9.202;2022-10-16T01:53:58;14.40;99.90
9760;DHT22;4919;48.792;9.202;2022-10-16T01:56:27;14.40;99.90
9760;DHT22;4919;48.792;9.202;2022-10-16T01:59:17;14.40;99.90
9760;DHT22;4919;48.792;9.202;2022-10-16T02:01:48;14.40;99.90
9760;DHT22;4919;48.792;9.202;2022-10-16T02:04:24;14.40;99.90
9760;DHT22;4919;48.792;9.202;2022-10-16T02:06:54;14.40;99.90
9760;DHT22;4919;48.792;9.202;2022-10-16T02:09:21;14.40;99.90
9760;DHT22;4919;48.792;9.202;2022-10-16T02:11:51;14.40;99.90
9760;DHT22;4919;48.792;9.202;2022-10-16T02:14:19;14.40;99.90
9760;DHT22;4919;48.792;9.202;2022-10-16T02:16:46;14.40;99.90
9760;DHT22;4919;48.792;9.202;2022-10-16T02:19:13;14.40;99.90
9760;DHT22;4919;48.792;9.202;2022-10-16T02:24:40;14.50;99.90
9760;DHT22;4919;48.792;9.202;2022-10-16T02:30:20;14.50;99.90
9760;DHT22;4919;48.792;9.202;2022-10-16T02:32:48;14.50;99.90
9760;DHT22;4919;48.792;9.202;2022-10-16T02:35:18;14.50;99.90
9760;DHT22;4919;48.792;9.202;2022-10-16T02:37:47;14.60;99.90
9760;DHT22;4919;48.792;9.202;2022-10-16T02:40:16;14.60;99.90
9760;DHT22;4919;48.792;9.202;2022-10-16T02:42:51;14.50;99.90
9760;DHT22;4919;48.792;9.202;2022-10-16T02:45:19;14.50;99.90
9760;DHT22;4919;48.792;9.202;2022-10-16T02:47:46;14.60;99.90
9760;DHT22;4919;48.792;9.202;2022-10-16T02:50:13;14.60;99.90
9760;DHT22;4919;48.792;9.202;2022-10-16T02:52:40;14.60;99.90
9760;DHT22;4919;48.792;9.202;2022-10-16T02:55:07;14.60;99.90
9760;DHT22;4919;48.792;9.202;2022-10-16T02:57:34;14.50;99.90
9760;DHT22;4919;48.792;9.202;2022-10-16T03:00:14;14.50;99.90
9760;DHT22;4919;48.792;9.202;2022-10-16T03:02:41;14.50;99.90
9760;DHT22;4919;48.792;9.202;2022-10-16T03:05:09;14.50;99.90
9760;DHT22;4919;48.792;9.202;2022-10-16T03:07:36;14.40;99.90
9760;DHT22;4919;48.792;9.202;2022-10-16T03:10:03;14.30;99.90
9760;DHT22;4919;48.792;9.202;2022-10-16T03:12:30;14.30;99.90
9760;DHT22;4919;48.792;9.202;2022-10-16T03:14:57;14.20;99.90
9760;DHT22;4919;48.792;9.202;2022-10-16T03:17:24;14.20;99.90
9760;DHT22;4919;48.792;9.202;2022-10-16T03:19:52;14.20;99.90
9760;DHT22;4919;48.792;9.202;2022-10-16T03:22:19;14.20;99.90
9760;DHT22;4919;48.792;9.202;2022-10-16T03:24:46;14.20;99.90
9760;DHT22;4919;48.792;9.202;2022-10-16T03:27:13;14.20;99.90
9760;DHT22;4919;48.792;9.202;2022-10-16T03:29:39;14.20;99.90
9760;DHT22;4919;48.792;9.202;2022-10-16T03:32:06;14.20;99.90
9760;DHT22;4919;48.792;9.202;2022-10-16T03:34:33;14.20;99.90
9760;DHT22;4919;48.792;9.202;2022-10-16T03:37:00;14.10;99.90
9760;DHT22;4919;48.792;9.202;2022-10-16T03:39:27;14.10;99.90
9760;DHT22;4919;48.792;9.202;2022-10-16T03:41:54;14.10;99.90
9760;DHT22;4919;48.792;9.202;2022-10-16T03:44:21;14.10;99.90
9760;DHT22;4919;48.792;9.202;2022-10-16T03:46:48;14.00;99.90
9760;DHT22;4919;48.792;9.202;2022-10-16T03:49:15;14.00;99.90
9760;DHT22;4919;48.792;9.202;2022-10-16T03:51:42;14.00;99.90
9760;DHT22;4919;48.792;9.202;2022-10-16T03:54:09;14.00;99.90
9760;DHT22;4919;48.792;9.202;2022-10-16T03:56:36;14.00;99.90
9760;DHT22;4919;48.792;9.202;2022-10-16T03:59:03;14.00;99.90
9760;DHT22;4919;48.792;9.202;2022-10-16T04:01:30;14.00;99.90
9760;DHT22;4919;48.792;9.202;2022-10-16T04:03:57;13.90;99.90
9760;DHT22;4919;48.792;9.202;2022-10-16T04:06:24;13.90;99.90
9760;DHT22;4919;48.792;9.202;2022-10-16T04:08:50;13.90;99.90
9760;DHT22;4919;48.792;9.202;2022-10-16T04:11:17;13.90;99.90
9760;DHT22;4919;48.792;9.202;2022-10-16T04:13:44;13.90;99.90
9760;DHT22;4919;48.792;9.202;2022-10-16T04:16:11;13.90;99.90
9760;DHT22;4919;48.792;9.202;2022-10-16T04:18:37;13.90;99.90
9760;DHT22;4919;48.792;9.202;2022-10-16T04:21:05;13.90;99.90
9760;DHT22;4919;48.792;9.202;2022-10-16T04:23:33;14.00;99.90
9760;DHT22;4919;48.792;9.202;2022-10-16T04:26:00;14.00;99.90
9760;DHT22;4919;48.792;9.202;2022-10-16T04:28:27;14.00;99.90
9760;DHT22;4919;48.792;9.202;2022-10-16T04:30:54;14.00;99.90
9760;DHT22;4919;48.792;9.202;2022-10-16T04:33:21;13.90;99.90
9760;DHT22;4919;48.792;9.202;2022-10-16T04:35:48;13.90;99.90
9760;DHT22;4919;48.792;9.202;2022-10-16T04:38:15;13.90;99.90
9760;DHT22;4919;48.792;9.202;2022-10-16T04:40:42;13.80;99.90
9760;DHT22;4919;48.792;9.202;2022-10-16T04:43:09;13.80;99.90
9760;DHT22;4919;48.792;9.202;2022-10-16T04:45:37;13.80;99.90
9760;DHT22;4919;48.792;9.202;2022-10-16T04:48:04;13.80;99.90
9760;DHT22;4919;48.792;9.202;2022-10-16T04:50:30;13.70;99.90
9760;DHT22;4919;48.792;9.202;2022-10-16T04:53:05;13.70;99.90
9760;DHT22;4919;48.792;9.202;2022-10-16T04:55:32;13.70;99.90
9760;DHT22;4919;48.792;9.202;2022-10-16T04:57:58;13.70;99.90
9760;DHT22;4919;48.792;9.202;2022-10-16T05:00:25;13.70;99.90
9760;DHT22;4919;48.792;9.202;2022-10-16T05:02:52;13.70;99.90
9760;DHT22;4919;48.792;9.202;2022-10-16T05:05:19;13.70;99.90
9760;DHT22;4919;48.792;9.202;2022-10-16T05:07:47;13.60;99.90
9760;DHT22;4919;48.792;9.202;2022-10-16T05:10:14;13.60;99.90
9760;DHT22;4919;48.792;9.202;2022-10-16T05:12:41;13.60;99.90
9760;DHT22;4919;48.792;9.202;2022-10-16T05:15:08;13.60;99.90
9760;DHT22;4919;48.792;9.202;2022-10-16T05:17:35;13.60;99.90
9760;DHT22;4919;48.792;9.202;2022-10-16T05:20:10;13.60;99.90
9760;DHT22;4919;48.792;9.202;2022-10-16T05:22:38;13.60;99.90
9760;DHT22;4919;48.792;9.202;2022-10-16T05:25:05;13.60;99.90
9760;DHT22;4919;48.792;9.202;2022-10-16T05:27:31;13.60;99.90
9760;DHT22;4919;48.792;9.202;2022-10-16T05:29:58;13.60;99.90
9760;DHT22;4919;48.792;9.202;2022-10-16T05:32:25;13.60;99.90
9760;DHT22;4919;48.792;9.202;2022-10-16T05:34:52;13.60;99.90
9760;DHT22;4919;48.792;9.202;2022-10-16T05:37:19;13.60;99.90
9760;DHT22;4919;48.792;9.202;2022-10-16T05:39:45;13.60;99.90
9760;DHT22;4919;48.792;9.202;2022-10-16T05:42:12;13.50;99.90
9760;DHT22;4919;48.792;9.202;2022-10-16T05:44:39;13.50;99.90
9760;DHT22;4919;48.792;9.202;2022-10-16T05:47:06;13.60;99.90
9760;DHT22;4919;48.792;9.202;2022-10-16T05:49:33;13.60;99.90
9760;DHT22;4919;48.792;9.202;2022-10-16T05:52:06;13.60;99.90
9760;DHT22;4919;48.792;9.202;2022-10-16T05:54:32;13.60;99.90
9760;DHT22;4919;48.792;9.202;2022-10-16T05:56:59;13.60;99.90
9760;DHT22;4919;48.792;9.202;2022-10-16T05:59:26;13.70;99.90
9760;DHT22;4919;48.792;9.202;2022-10-16T06:01:53;13.70;99.90
9760;DHT22;4919;48.792;9.202;2022-10-16T06:04:20;13.70;99.90
9760;DHT22;4919;48.792;9.202;2022-10-16T06:06:47;13.70;99.90
9760;DHT22;4919;48.792;9.202;2022-10-16T06:09:13;13.70;99.90
9760;DHT22;4919;48.792;9.202;2022-10-16T06:11:40;13.70;99.90
9760;DHT22;4919;48.792;9.202;2022-10-16T06:14:08;13.70;99.90
9760;DHT22;4919;48.792;9.202;2022-10-16T06:16:36;13.70;99.90
9760;DHT22;4919;48.792;9.202;2022-10-16T06:19:03;13.70;99.90
9760;DHT22;4919;48.792;9.202;2022-10-16T06:21:33;13.80;99.90
9760;DHT22;4919;48.792;9.202;2022-10-16T06:24:00;13.80;99.90
9760;DHT22;4919;48.792;9.202;2022-10-16T06:26:28;13.80;99.90
9760;DHT22;4919;48.792;9.202;2022-10-16T06:28:58;13.80;99.90
9760;DHT22;4919;48.792;9.202;2022-10-16T06:31:26;13.90;99.90
9760;DHT22;4919;48.792;9.202;2022-10-16T06:33:56;13.90;99.90
9760;DHT22;4919;48.792;9.202;2022-10-16T06:36:24;14.00;99.90
9760;DHT22;4919;48.792;9.202;2022-10-16T06:38:51;14.00;99.90
9760;DHT22;4919;48.792;9.202;2022-10-16T06:41:20;14.00;99.90
9760;DHT22;4919;48.792;9.202;2022-10-16T06:43:47;14.10;99.90
9760;DHT22;4919;48.792;9.202;2022-10-16T06:46:17;14.10;99.90
9760;DHT22;4919;48.792;9.202;2022-10-16T06:48:44;14.10;99.90
9760;DHT22;4919;48.792;9.202;2022-10-16T06:51:16;14.20;99.90
9760;DHT22;4919;48.792;9.202;2022-10-16T06:53:45;14.20;99.90
9760;DHT22;4919;48.792;9.202;2022-10-16T06:56:31;14.20;99.90
9760;DHT22;4919;48.792;9.202;2022-10-16T06:58:58;14.30;99.90
9760;DHT22;4919;48.792;9.202;2022-10-16T07:01:26;14.40;99.90
9760;DHT22;4919;48.792;9.202;2022-10-16T07:03:53;14.40;99.90
9760;DHT22;4919;48.792;9.202;2022-10-16T07:06:22;14.50;99.90
9760;DHT22;4919;48.792;9.202;2022-10-16T07:08:49;14.50;99.90
9760;DHT22;4919;48.792;9.202;2022-10-16T07:11:19;14.60;99.90
9760;DHT22;4919;48.792;9.202;2022-10-16T07:13:46;14.60;99.90
9760;DHT22;4919;48.792;9.202;2022-10-16T07:16:28;14.70;99.90
9760;DHT22;4919;48.792;9.202;2022-10-16T07:18:57;14.80;99.90
9760;DHT22;4919;48.792;9.202;2022-10-16T07:21:32;14.90;99.90
9760;DHT22;4919;48.792;9.202;2022-10-16T07:24:04;15.10;99.90
9760;DHT22;4919;48.792;9.202;2022-10-16T07:26:33;15.30;99.90
9760;DHT22;4919;48.792;9.202;2022-10-16T07:29:00;15.50;99.90
9760;DHT22;4919;48.792;9.202;2022-10-16T07:31:28;15.60;99.90
9760;DHT22;4919;48.792;9.202;2022-10-16T07:33:55;15.70;99.90
9760;DHT22;4919;48.792;9.202;2022-10-16T07:36:22;15.90;99.90
9760;DHT22;4919;48.792;9.202;2022-10-16T07:38:49;16.00;99.90
9760;DHT22;4919;48.792;9.202;2022-10-16T07:41:21;16.10;99.90
9760;DHT22;4919;48.792;9.202;2022-10-16T07:43:52;16.30;99.90
9760;DHT22;4919;48.792;9.202;2022-10-16T07:46:20;16.20;99.90
9760;DHT22;4919;48.792;9.202;2022-10-16T07:48:48;16.20;99.90
9760;DHT22;4919;48.792;9.202;2022-10-16T07:51:17;16.30;99.90
9760;DHT22;4919;48.792;9.202;2022-10-16T07:53:45;16.30;99.90
9760;DHT22;4919;48.792;9.202;2022-10-16T07:56:13;16.30;99.90
9760;DHT22;4919;48.792;9.202;2022-10-16T07:58:40;16.40;99.90
9760;DHT22;4919;48.792;9.202;2022-10-16T08:01:09;16.40;99.90
9760;DHT22;4919;48.792;9.202;2022-10-16T08:03:37;16.40;99.90
9760;DHT22;4919;48.792;9.202;2022-10-16T08:06:04;16.40;99.90
9760;DHT22;4919;48.792;9.202;2022-10-16T08:08:31;16.40;99.90
9760;DHT22;4919;48.792;9.202;2022-10-16T08:10:58;16.40;99.90
9760;DHT22;4919;48.792;9.202;2022-10-16T08:13:25;16.40;99.90
9760;DHT22;4919;48.792;9.202;2022-10-16T08:15:54;16.40;99.90
9760;DHT22;4919;48.792;9.202;2022-10-16T08:18:21;16.50;99.90
9760;DHT22;4919;48.792;9.202;2022-10-16T08:20:55;16.50;99.90
9760;DHT22;4919;48.792;9.202;2022-10-16T08:23:22;16.60;99.90
9760;DHT22;4919;48.792;9.202;2022-10-16T08:25:49;16.60;99.90
9760;DHT22;4919;48.792;9.202;2022-10-16T08:28:16;16.60;99.90
9760;DHT22;4919;48.792;9.202;2022-10-16T08:30:43;16.70;99.90
9760;DHT22;4919;48.792;9.202;2022-10-16T08:33:10;16.80;99.90
9760;DHT22;4919;48.792;9.202;2022-10-16T08:35:37;16.90;99.90
9760;DHT22;4919;48.792;9.202;2022-10-16T08:38:04;17.00;99.90
9760;DHT22;4919;48.792;9.202;2022-10-16T08:40:33;17.20;99.90
9760;DHT22;4919;48.792;9.202;2022-10-16T08:46:45;17.40;99.90
9760;DHT22;4919;48.792;9.202;2022-10-16T08:49:02;17.30;99.90
9760;DHT22;4919;48.792;9.202;2022-10-16T08:51:34;17.20;99.90
9760;DHT22;4919;48.792;9.202;2022-10-16T08:56:45;17.10;99.90
9760;DHT22;4919;48.792;9.202;2022-10-16T08:59:20;17.10;99.90
9760;DHT22;4919;48.792;9.202;2022-10-16T09:01:50;17.10;99.90
9760;DHT22;4919;48.792;9.202;2022-10-16T09:04:26;17.10;99.90
9760;DHT22;4919;48.792;9.202;2022-10-16T09:06:57;17.10;99.90
9760;DHT22;4919;48.792;9.202;2022-10-16T09:09:43;17.10;99.90
9760;DHT22;4919;48.792;9.202;2022-10-16T09:12:41;17.10;99.90
9760;DHT22;4919;48.792;9.202;2022-10-16T09:15:23;17.10;99.90
9760;DHT22;4919;48.792;9.202;2022-10-16T09:18:01;17.20;99.90
9760;DHT22;4919;48.792;9.202;2022-10-16T09:20:52;17.40;99.90
9760;DHT22;4919;48.792;9.202;2022-10-16T09:23:28;17.60;99.90
9760;DHT22;4919;48.792;9.202;2022-10-16T09:25:58;17.80;99.90
9760;DHT22;4919;48.792;9.202;2022-10-16T09:28:26;17.90;99.90
9760;DHT22;4919;48.792;9.202;2022-10-16T09:30:53;18.00;99.90
9760;DHT22;4919;48.792;9.202;2022-10-16T09:33:25;17.90;99.90
9760;DHT22;4919;48.792;9.202;2022-10-16T09:35:56;18.10;99.90
9760;DHT22;4919;48.792;9.202;2022-10-16T09:38:30;18.30;99.90
9760;DHT22;4919;48.792;9.202;2022-10-16T09:41:00;18.30;99.90
9760;DHT22;4919;48.792;9.202;2022-10-16T09:46:19;18.30;99.90
9760;DHT22;4919;48.792;9.202;2022-10-16T09:48:50;18.20;99.90
9760;DHT22;4919;48.792;9.202;2022-10-16T09:51:23;18.20;99.90
9760;DHT22;4919;48.792;9.202;2022-10-16T09:54:13;18.10;99.90
9760;DHT22;4919;48.792;9.202;2022-10-16T09:56:41;18.20;99.90
9760;DHT22;4919;48.792;9.202;2022-10-16T09:59:15;18.20;99.90
9760;DHT22;4919;48.792;9.202;2022-10-16T10:01:50;18.20;99.90
9760;DHT22;4919;48.792;9.202;2022-10-16T10:04:19;18.20;99.90
9760;DHT22;4919;48.792;9.202;2022-10-16T10:06:55;18.30;99.90
9760;DHT22;4919;48.792;9.202;2022-10-16T10:09:49;18.80;99.90
9760;DHT22;4919;48.792;9.202;2022-10-16T10:12:28;19.00;99.90
9760;DHT22;4919;48.792;9.202;2022-10-16T10:14:57;19.10;99.90
9760;DHT22;4919;48.792;9.202;2022-10-16T10:17:26;19.30;99.90
9760;DHT22;4919;48.792;9.202;2022-10-16T10:19:59;19.60;99.90
9760;DHT22;4919;48.792;9.202;2022-10-16T10:22:32;19.40;99.90
9760;DHT22;4919;48.792;9.202;2022-10-16T10:25:12;19.40;99.90
9760;DHT22;4919;48.792;9.202;2022-10-16T10:28:00;19.40;99.90
9760;DHT22;4919;48.792;9.202;2022-10-16T10:36:11;18.70;99.90
9760;DHT22;4919;48.792;9.202;2022-10-16T10:38:51;18.60;99.90
9760;DHT22;4919;48.792;9.202;2022-10-16T10:41:47;18.70;99.90
9760;DHT22;4919;48.792;9.202;2022-10-16T10:47:32;18.70;99.90
9760;DHT22;4919;48.792;9.202;2022-10-16T10:56:05;18.80;99.90
9760;DHT22;4919;48.792;9.202;2022-10-16T11:01:48;19.10;99.90
9760;DHT22;4919;48.792;9.202;2022-10-16T11:07:20;19.10;99.90
9760;DHT22;4919;48.792;9.202;2022-10-16T11:09:51;18.90;99.90
9760;DHT22;4919;48.792;9.202;2022-10-16T11:12:30;18.90;99.90
9760;DHT22;4919;48.792;9.202;2022-10-16T11:15:15;18.90;99.90
9760;DHT22;4919;48.792;9.202;2022-10-16T11:17:52;18.80;99.90
9760;DHT22;4919;48.792;9.202;2022-10-16T11:20:23;19.00;99.90
9760;DHT22;4919;48.792;9.202;2022-10-16T11:22:58;19.30;99.90
9760;DHT22;4919;48.792;9.202;2022-10-16T11:25:31;19.40;99.90
9760;DHT22;4919;48.792;9.202;2022-10-16T11:31:33;19.60;99.90
9760;DHT22;4919;48.792;9.202;2022-10-16T11:36:31;19.70;99.90
9760;DHT22;4919;48.792;9.202;2022-10-16T11:42:27;19.70;99.90
9760;DHT22;4919;48.792;9.202;2022-10-16T11:45:28;19.70;99.90
9760;DHT22;4919;48.792;9.202;2022-10-16T11:50:53;19.90;99.90
9760;DHT22;4919;48.792;9.202;2022-10-16T11:56:18;19.80;99.90
9760;DHT22;4919;48.792;9.202;2022-10-16T11:59:13;19.80;99.90
9760;DHT22;4919;48.792;9.202;2022-10-16T12:01:49;19.90;99.90
9760;DHT22;4919;48.792;9.202;2022-10-16T12:04:38;19.90;99.90
9760;DHT22;4919;48.792;9.202;2022-10-16T12:07:24;19.80;99.90
9760;DHT22;4919;48.792;9.202;2022-10-16T12:09:54;19.80;99.90
9760;DHT22;4919;48.792;9.202;2022-10-16T12:12:36;19.80;99.90
9760;DHT22;4919;48.792;9.202;2022-10-16T12:18:24;19.70;99.90
9760;DHT22;4919;48.792;9.202;2022-10-16T12:20:56;19.60;99.90
9760;DHT22;4919;48.792;9.202;2022-10-16T12:23:26;19.60;99.90
9760;DHT22;4919;48.792;9.202;2022-10-16T12:25:58;19.60;99.90
9760;DHT22;4919;48.792;9.202;2022-10-16T12:28:32;19.50;99.90
9760;DHT22;4919;48.792;9.202;2022-10-16T12:31:05;19.50;99.90
9760;DHT22;4919;48.792;9.202;2022-10-16T12:33:41;19.50;99.90
9760;DHT22;4919;48.792;9.202;2022-10-16T12:36:26;19.60;99.90
9760;DHT22;4919;48.792;9.202;2022-10-16T12:38:53;19.70;99.90
9760;DHT22;4919;48.792;9.202;2022-10-16T12:41:35;19.80;99.90
9760;DHT22;4919;48.792;9.202;2022-10-16T12:44:02;19.70;99.90
9760;DHT22;4919;48.792;9.202;2022-10-16T12:51:43;19.90;99.90
9760;DHT22;4919;48.792;9.202;2022-10-16T12:54:35;19.90;99.90
9760;DHT22;4919;48.792;9.202;2022-10-16T13:00:32;20.00;99.90
9760;DHT22;4919;48.792;9.202;2022-10-16T13:11:49;19.70;99.90
9760;DHT22;4919;48.792;9.202;2022-10-16T13:14:29;19.80;99.90
9760;DHT22;4919;48.792;9.202;2022-10-16T13:17:15;19.70;99.90
9760;DHT22;4919;48.792;9.202;2022-10-16T13:20:12;19.60;99.90
9760;DHT22;4919;48.792;9.202;2022-10-16T13:22:57;19.70;99.90
9760;DHT22;4919;48.792;9.202;2022-10-16T13:25:49;19.80;99.90
9760;DHT22;4919;48.792;9.202;2022-10-16T13:28:21;19.90;99.90
9760;DHT22;4919;48.792;9.202;2022-10-16T13:30:53;20.00;99.90
9760;DHT22;4919;48.792;9.202;2022-10-16T13:33:35;20.00;99.90
9760;DHT22;4919;48.792;9.202;2022-10-16T13:36:03;20.00;99.90
9760;DHT22;4919;48.792;9.202;2022-10-16T13:38:35;20.00;99.90
9760;DHT22;4919;48.792;9.202;2022-10-16T13:41:04;19.90;99.90
9760;DHT22;4919;48.792;9.202;2022-10-16T13:43:36;20.00;99.90
9760;DHT22;4919;48.792;9.202;2022-10-16T13:46:06;19.90;99.90
9760;DHT22;4919;48.792;9.202;2022-10-16T13:48:34;20.00;99.90
9760;DHT22;4919;48.792;9.202;2022-10-16T13:51:07;20.10;99.90
9760;DHT22;4919;48.792;9.202;2022-10-16T13:53:38;20.00;99.90
9760;DHT22;4919;48.792;9.202;2022-10-16T13:56:09;20.00;99.90
9760;DHT22;4919;48.792;9.202;2022-10-16T13:58:36;20.00;99.90
9760;DHT22;4919;48.792;9.202;2022-10-16T14:01:26;20.10;99.90
9760;DHT22;4919;48.792;9.202;2022-10-16T14:04:07;20.20;99.90
9760;DHT22;4919;48.792;9.202;2022-10-16T14:06:35;20.10;99.90
9760;DHT22;4919;48.792;9.202;2022-10-16T14:09:29;20.20;99.90
9760;DHT22;4919;48.792;9.202;2022-10-16T14:12:03;20.20;99.90
9760;DHT22;4919;48.792;9.202;2022-10-16T14:14:48;20.20;99.90
9760;DHT22;4919;48.792;9.202;2022-10-16T14:17:23;20.00;99.90
9760;DHT22;4919;48.792;9.202;2022-10-16T14:19:53;19.90;99.90
9760;DHT22;4919;48.792;9.202;2022-10-16T14:22:36;19.90;99.90
9760;DHT22;4919;48.792;9.202;2022-10-16T14:28:00;19.60;99.90
9760;DHT22;4919;48.792;9.202;2022-10-16T14:30:35;19.50;99.90
9760;DHT22;4919;48.792;9.202;2022-10-16T14:33:05;19.70;99.90
9760;DHT22;4919;48.792;9.202;2022-10-16T14:38:00;19.80;99.90
9760;DHT22;4919;48.792;9.202;2022-10-16T14:40:35;19.70;99.90
9760;DHT22;4919;48.792;9.202;2022-10-16T14:43:04;19.70;99.90
9760;DHT22;4919;48.792;9.202;2022-10-16T14:45:33;19.60;99.90
9760;DHT22;4919;48.792;9.202;2022-10-16T14:48:14;19.50;99.90
9760;DHT22;4919;48.792;9.202;2022-10-16T14:50:45;19.40;99.90
9760;DHT22;4919;48.792;9.202;2022-10-16T14:53:12;19.40;99.90
9760;DHT22;4919;48.792;9.202;2022-10-16T14:55:40;19.30;99.90
9760;DHT22;4919;48.792;9.202;2022-10-16T14:58:19;19.40;99.90
9760;DHT22;4919;48.792;9.202;2022-10-16T15:00:46;19.30;99.90
9760;DHT22;4919;48.792;9.202;2022-10-16T15:03:13;19.30;99.90
9760;DHT22;4919;48.792;9.202;2022-10-16T15:05:40;19.20;99.90
9760;DHT22;4919;48.792;9.202;2022-10-16T15:08:07;19.20;99.90
9760;DHT22;4919;48.792;9.202;2022-10-16T15:10:39;19.20;99.90
9760;DHT22;4919;48.792;9.202;2022-10-16T15:13:06;19.00;99.90
9760;DHT22;4919;48.792;9.202;2022-10-16T15:15:38;19.00;99.90
9760;DHT22;4919;48.792;9.202;2022-10-16T15:18:07;18.90;99.90
9760;DHT22;4919;48.792;9.202;2022-10-16T15:20:36;18.70;99.90
9760;DHT22;4919;48.792;9.202;2022-10-16T15:23:15;18.60;99.90
9760;DHT22;4919;48.792;9.202;2022-10-16T15:25:47;18.50;99.90
9760;DHT22;4919;48.792;9.202;2022-10-16T15:28:16;18.40;99.90
9760;DHT22;4919;48.792;9.202;2022-10-16T15:30:43;18.30;99.90
9760;DHT22;4919;48.792;9.202;2022-10-16T15:33:15;18.10;99.90
9760;DHT22;4919;48.792;9.202;2022-10-16T15:35:42;18.00;99.90
9760;DHT22;4919;48.792;9.202;2022-10-16T15:38:12;18.00;99.90
9760;DHT22;4919;48.792;9.202;2022-10-16T15:40:40;17.80;99.90
9760;DHT22;4919;48.792;9.202;2022-10-16T15:43:08;17.90;99.90
9760;DHT22;4919;48.792;9.202;2022-10-16T15:45:35;18.00;99.90
9760;DHT22;4919;48.792;9.202;2022-10-16T15:48:02;18.00;99.90
9760;DHT22;4919;48.792;9.202;2022-10-16T15:50:30;17.80;99.90
9760;DHT22;4919;48.792;9.202;2022-10-16T15:52:58;17.70;99.90
9760;DHT22;4919;48.792;9.202;2022-10-16T15:55:25;17.60;99.90
9760;DHT22;4919;48.792;9.202;2022-10-16T15:57:51;17.50;99.90
9760;DHT22;4919;48.792;9.202;2022-10-16T16:00:19;17.20;99.90
9760;DHT22;4919;48.792;9.202;2022-10-16T16:02:53;17.10;99.90
9760;DHT22;4919;48.792;9.202;2022-10-16T16:05:21;17.00;99.90
9760;DHT22;4919;48.792;9.202;2022-10-16T16:07:49;16.80;99.90
9760;DHT22;4919;48.792;9.202;2022-10-16T16:10:17;16.60;99.90
9760;DHT22;4919;48.792;9.202;2022-10-16T16:12:49;16.40;99.90
9760;DHT22;4919;48.792;9.202;2022-10-16T16:15:20;16.30;99.90
9760;DHT22;4919;48.792;9.202;2022-10-16T16:17:47;16.20;99.90
9760;DHT22;4919;48.792;9.202;2022-10-16T16:20:15;16.00;99.90
9760;DHT22;4919;48.792;9.202;2022-10-16T16:22:41;15.90;99.90
9760;DHT22;4919;48.792;9.202;2022-10-16T16:25:08;15.80;99.90
9760;DHT22;4919;48.792;9.202;2022-10-16T16:27:35;15.70;99.90
9760;DHT22;4919;48.792;9.202;2022-10-16T16:30:10;15.60;99.90
9760;DHT22;4919;48.792;9.202;2022-10-16T16:32:41;15.40;99.90
9760;DHT22;4919;48.792;9.202;2022-10-16T16:35:09;15.30;99.90
9760;DHT22;4919;48.792;9.202;2022-10-16T16:37:35;15.20;99.90
9760;DHT22;4919;48.792;9.202;2022-10-16T16:40:02;15.10;99.90
9760;DHT22;4919;48.792;9.202;2022-10-16T16:42:29;15.00;99.90
9760;DHT22;4919;48.792;9.202;2022-10-16T16:44:56;14.90;99.90
9760;DHT22;4919;48.792;9.202;2022-10-16T16:47:23;14.80;99.90
9760;DHT22;4919;48.792;9.202;2022-10-16T16:49:50;14.70;99.90
9760;DHT22;4919;48.792;9.202;2022-10-16T16:52:18;14.60;99.90
9760;DHT22;4919;48.792;9.202;2022-10-16T16:54:44;14.60;99.90
9760;DHT22;4919;48.792;9.202;2022-10-16T16:57:19;14.50;99.90
9760;DHT22;4919;48.792;9.202;2022-10-16T16:59:46;14.40;99.90
9760;DHT22;4919;48.792;9.202;2022-10-16T17:02:13;14.40;99.90
9760;DHT22;4919;48.792;9.202;2022-10-16T17:04:40;14.20;99.90
9760;DHT22;4919;48.792;9.202;2022-10-16T17:07:07;14.20;99.90
9760;DHT22;4919;48.792;9.202;2022-10-16T17:09:34;14.20;99.90
9760;DHT22;4919;48.792;9.202;2022-10-16T17:12:01;14.20;99.90
9760;DHT22;4919;48.792;9.202;2022-10-16T17:14:28;14.10;99.90
9760;DHT22;4919;48.792;9.202;2022-10-16T17:16:54;14.10;99.90
9760;DHT22;4919;48.792;9.202;2022-10-16T17:19:21;14.00;99.90
9760;DHT22;4919;48.792;9.202;2022-10-16T17:21:51;14.00;99.90
9760;DHT22;4919;48.792;9.202;2022-10-16T17:24:18;13.90;99.90
9760;DHT22;4919;48.792;9.202;2022-10-16T17:26:46;13.90;99.90
9760;DHT22;4919;48.792;9.202;2022-10-16T17:29:15;13.80;99.90
9760;DHT22;4919;48.792;9.202;2022-10-16T17:31:44;13.70;99.90
9760;DHT22;4919;48.792;9.202;2022-10-16T17:34:11;13.60;99.90
9760;DHT22;4919;48.792;9.202;2022-10-16T17:36:39;13.60;99.90
9760;DHT22;4919;48.792;9.202;2022-10-16T17:39:16;13.50;99.90
9760;DHT22;4919;48.792;9.202;2022-10-16T17:41:47;13.50;99.90
9760;DHT22;4919;48.792;9.202;2022-10-16T17:44:14;13.40;99.90
9760;DHT22;4919;48.792;9.202;2022-10-16T17:46:47;13.40;99.90
9760;DHT22;4919;48.792;9.202;2022-10-16T17:49:15;13.30;99.90
9760;DHT22;4919;48.792;9.202;2022-10-16T17:51:42;13.20;99.90